Hurstpierpoint, United Kingdom
Current Conditions -  °F | °C
As of 7:20 AM on Thursday 23 Oct 2014 (Local Time) from EGKK Reporting Station
Overcast Overcast  
Wind Chill: 12°   Ceiling: 3200
Heat Index: 12°   Visibility: 6mi
Dew Point:   Wind: 7mph
Humidity: 72%   Direction: 210°SSW
Pressure: 30.15"   Gusts: NA
Location:  50.93°N, 0.18°W
Report Text: EGKK 230620Z 21006KT 9999 OVC032 12/07 Q1021
Loading
Personal Weather Stations






























Interactive Weather Map
Tropical Storm Tracking
New forecast layout! Learn more

10-Day Weather Forecast

Advertisements
Track Severe Weather on mobile